Time;durP1;ratioP1;P1;durP2;ratioP2;P2;SDS_P1;SDS_P2;PMS_P1;PMS_P2;Temp;Humidity;BMP_temperature;BMP_pressure;BME280_temperature;BME280_humidity;BME280_pressure;Samples;Min_cycle;Max_cycle;Signal;HPM_P1;HPM_P2
2022/11/02 00:00:24;;;;;;;14.57;4.90;;;;;;;;;;5032750;28;20476;-66
2022/11/02 00:02:49;;;;;;;23.00;5.18;;;;;;;;;;5029708;28;20032;-65
2022/11/02 00:05:14;;;;;;;20.23;5.00;;;;;;;;;;5029644;28;20013;-64
2022/11/02 00:07:40;;;;;;;12.82;4.43;;;;;;;;;;5034397;28;20065;-63
2022/11/02 00:10:06;;;;;;;24.75;6.72;;;;;;;;;;5032871;28;20033;-63
2022/11/02 00:12:31;;;;;;;11.25;4.85;;;;;;;;;;5033140;28;20029;-64
2022/11/02 00:14:56;;;;;;;13.32;4.32;;;;;;;;;;5022635;28;20483;-65
2022/11/02 00:17:21;;;;;;;16.23;4.63;;;;;;;;;;5033140;28;20732;-66
2022/11/02 00:19:47;;;;;;;17.52;4.80;;;;;;;;;;5033777;28;20279;-66
2022/11/02 00:22:12;;;;;;;12.60;4.28;;;;;;;;;;5034055;28;20116;-64
2022/11/02 00:24:37;;;;;;;12.95;4.70;;;;;;;;;;5033797;28;20100;-64
2022/11/02 00:27:02;;;;;;;11.10;3.85;;;;;;;;;;5033093;28;20018;-65
2022/11/02 00:29:28;;;;;;;13.65;4.03;;;;;;;;;;5027725;28;20045;-63
2022/11/02 00:31:53;;;;;;;24.45;5.00;;;;;;;;;;5028278;28;20014;-64
2022/11/02 00:34:18;;;;;;;18.02;4.70;;;;;;;;;;5026805;28;20022;-65
2022/11/02 00:36:43;;;;;;;21.23;4.30;;;;;;;;;;5027669;28;20021;-65
2022/11/02 00:39:09;;;;;;;17.00;4.22;;;;;;;;;;5033225;28;20009;-64
2022/11/02 00:41:34;;;;;;;17.25;5.03;;;;;;;;;;5023486;28;20379;-64
2022/11/02 00:43:59;;;;;;;11.27;3.80;;;;;;;;;;5034304;28;20598;-64
2022/11/02 00:46:24;;;;;;;15.95;4.15;;;;;;;;;;5021050;28;20327;-64
2022/11/02 00:48:50;;;;;;;14.77;4.97;;;;;;;;;;5027251;28;20021;-65
2022/11/02 00:51:15;;;;;;;19.15;4.75;;;;;;;;;;5029444;28;20020;-65
2022/11/02 00:53:40;;;;;;;12.45;4.30;;;;;;;;;;5034174;28;20481;-65
2022/11/02 00:56:05;;;;;;;18.20;4.97;;;;;;;;;;5033717;28;20029;-63
2022/11/02 00:58:31;;;;;;;12.77;4.43;;;;;;;;;;5033131;28;20075;-65
2022/11/02 01:00:56;;;;;;;25.98;4.60;;;;;;;;;;5032534;28;20021;-62
2022/11/02 01:03:21;;;;;;;17.73;4.85;;;;;;;;;;5027757;28;20021;-64
2022/11/02 01:05:46;;;;;;;9.55;4.18;;;;;;;;;;5025641;28;20037;-66
2022/11/02 01:08:11;;;;;;;15.32;4.68;;;;;;;;;;5032771;28;20105;-64
2022/11/02 01:10:36;;;;;;;13.30;4.80;;;;;;;;;;5032668;28;20024;-66
2022/11/02 01:13:02;;;;;;;19.17;5.30;;;;;;;;;;5016063;28;20021;-65
2022/11/02 01:15:27;;;;;;;13.05;5.20;;;;;;;;;;5014022;28;20380;-65
2022/11/02 01:17:52;;;;;;;13.05;4.75;;;;;;;;;;5025246;28;20025;-64
2022/11/02 01:20:17;;;;;;;14.93;5.05;;;;;;;;;;5014785;28;20109;-66
2022/11/02 01:22:43;;;;;;;13.82;5.28;;;;;;;;;;5020135;28;20052;-65
2022/11/02 01:25:08;;;;;;;13.10;4.38;;;;;;;;;;5031255;28;20018;-65
2022/11/02 01:27:33;;;;;;;18.58;5.13;;;;;;;;;;5022637;28;20083;-63
2022/11/02 01:29:58;;;;;;;9.30;4.35;;;;;;;;;;5031427;28;20828;-65
2022/11/02 01:32:24;;;;;;;10.40;4.78;;;;;;;;;;5031451;28;20010;-63
2022/11/02 01:34:49;;;;;;;14.88;5.80;;;;;;;;;;5029426;28;20033;-65
2022/11/02 01:37:14;;;;;;;33.08;8.43;;;;;;;;;;5025329;28;20067;-62
2022/11/02 01:39:39;;;;;;;14.82;6.30;;;;;;;;;;5022220;28;20025;-64
2022/11/02 01:42:15;;;;;;;22.00;5.85;;;;;;;;;;5029654;28;20025;-65
2022/11/02 01:44:42;;;;;;;14.52;5.43;;;;;;;;;;5013189;28;20128;-65
2022/11/02 01:47:13;;;;;;;17.05;5.30;;;;;;;;;;5031165;28;20044;-63
2022/11/02 01:49:40;;;;;;;11.23;4.35;;;;;;;;;;5018468;28;20010;-65
2022/11/02 01:52:08;;;;;;;23.05;5.70;;;;;;;;;;5032141;28;20017;-62
2022/11/02 01:54:36;;;;;;;17.95;4.70;;;;;;;;;;5030910;28;20116;-62
2022/11/02 01:57:07;;;;;;;12.70;4.78;;;;;;;;;;5030534;28;20020;-64
2022/11/02 01:59:44;;;;;;;10.43;4.15;;;;;;;;;;5032721;28;20021;-65
2022/11/02 02:02:12;;;;;;;17.95;4.97;;;;;;;;;;5025745;28;20012;-65
2022/11/02 02:04:38;;;;;;;16.40;5.45;;;;;;;;;;5030358;28;20009;-62
2022/11/02 02:07:04;;;;;;;20.52;4.53;;;;;;;;;;5033407;28;20087;-66
2022/11/02 02:09:29;;;;;;;9.05;4.10;;;;;;;;;;5036436;28;20009;-65
2022/11/02 02:11:54;;;;;;;8.40;4.10;;;;;;;;;;5035041;28;20092;-66
2022/11/02 02:14:20;;;;;;;20.73;4.97;;;;;;;;;;5035550;28;20089;-65
2022/11/02 02:16:54;;;;;;;13.90;4.25;;;;;;;;;;5023890;28;20463;-65
2022/11/02 02:19:35;;;;;;;26.05;4.82;;;;;;;;;;5034257;28;20092;-64
2022/11/02 02:22:06;;;;;;;13.32;4.68;;;;;;;;;;5035935;28;20018;-65
2022/11/02 02:24:43;;;;;;;10.20;4.07;;;;;;;;;;5034496;28;20242;-64
2022/11/02 02:27:14;;;;;;;12.57;3.58;;;;;;;;;;5027110;28;20366;-65
2022/11/02 02:29:45;;;;;;;18.35;5.28;;;;;;;;;;5029583;28;20013;-66
2022/11/02 02:32:16;;;;;;;16.92;4.55;;;;;;;;;;5031332;28;20010;-66
2022/11/02 02:34:48;;;;;;;18.20;4.65;;;;;;;;;;5025138;28;20097;-66
2022/11/02 02:37:15;;;;;;;28.35;4.57;;;;;;;;;;5034395;28;20041;-63
2022/11/02 02:39:41;;;;;;;13.88;5.00;;;;;;;;;;5033863;28;20051;-65
2022/11/02 02:42:17;;;;;;;10.60;3.97;;;;;;;;;;5024919;28;20049;-64
2022/11/02 02:44:45;;;;;;;9.30;4.25;;;;;;;;;;5033878;28;20342;-65
2022/11/02 02:47:17;;;;;;;11.63;4.43;;;;;;;;;;5021878;28;20041;-65
2022/11/02 02:49:58;;;;;;;13.80;4.18;;;;;;;;;;5035082;28;20009;-64
2022/11/02 02:52:24;;;;;;;16.27;3.92;;;;;;;;;;5035347;28;20097;-65
2022/11/02 02:54:50;;;;;;;9.68;3.17;;;;;;;;;;5034850;28;20397;-64
2022/11/02 02:57:18;;;;;;;7.20;3.10;;;;;;;;;;5035168;28;20437;-63
2022/11/02 02:59:44;;;;;;;11.98;2.80;;;;;;;;;;5035152;28;20498;-65
2022/11/02 03:02:15;;;;;;;15.45;3.45;;;;;;;;;;5034889;28;20036;-64
2022/11/02 03:04:40;;;;;;;23.10;3.67;;;;;;;;;;5031235;28;20014;-65
2022/11/02 03:07:07;;;;;;;22.55;3.30;;;;;;;;;;5022983;28;20005;-65
2022/11/02 03:09:32;;;;;;;8.82;2.40;;;;;;;;;;5033770;28;20021;-64
2022/11/02 03:11:57;;;;;;;6.43;2.50;;;;;;;;;;5034205;28;20018;-64
2022/11/02 03:14:46;;;;;;;13.93;2.65;;;;;;;;;;5018012;28;20036;-64
2022/11/02 03:17:11;;;;;;;15.98;2.80;;;;;;;;;;5008885;28;20037;-63
2022/11/02 03:19:51;;;;;;;6.40;2.53;;;;;;;;;;5020970;28;20429;-64
2022/11/02 03:22:21;;;;;;;14.13;2.70;;;;;;;;;;5031965;28;20017;-64
2022/11/02 03:25:09;;;;;;;10.68;1.98;;;;;;;;;;5016654;28;20036;-63
2022/11/02 03:27:42;;;;;;;9.65;2.53;;;;;;;;;;5028749;28;20016;-64
2022/11/02 03:30:13;;;;;;;12.80;3.10;;;;;;;;;;5026694;28;20020;-63
2022/11/02 03:32:49;;;;;;;19.30;2.85;;;;;;;;;;5035002;28;20009;-63
2022/11/02 03:35:16;;;;;;;7.78;2.20;;;;;;;;;;5031082;28;20082;-65
2022/11/02 03:37:44;;;;;;;17.25;3.15;;;;;;;;;;5033777;28;20436;-64
2022/11/02 03:40:12;;;;;;;8.63;2.17;;;;;;;;;;5032472;28;20164;-64
2022/11/02 03:42:39;;;;;;;13.30;2.28;;;;;;;;;;5032575;28;20064;-66
2022/11/02 03:45:13;;;;;;;9.57;2.13;;;;;;;;;;5016495;28;20017;-66
2022/11/02 03:47:39;;;;;;;13.13;2.10;;;;;;;;;;5016609;28;20017;-65
2022/11/02 03:50:05;;;;;;;13.10;2.00;;;;;;;;;;5035212;28;20028;-62
2022/11/02 03:52:31;;;;;;;22.30;2.63;;;;;;;;;;5024748;28;20025;-66
2022/11/02 03:55:15;;;;;;;17.00;4.78;;;;;;;;;;5029956;28;20022;-64
2022/11/02 03:57:48;;;;;;;16.75;2.20;;;;;;;;;;5027771;28;20021;-64
2022/11/02 04:00:20;;;;;;;10.70;2.35;;;;;;;;;;5027598;28;20068;-65
2022/11/02 04:02:47;;;;;;;8.75;1.83;;;;;;;;;;5025496;28;20386;-64
2022/11/02 04:05:13;;;;;;;14.18;2.45;;;;;;;;;;5021822;28;20601;-63
2022/11/02 04:10:24;;;;;;;9.10;1.63;;;;;;;;;;5014993;28;20081;-65
2022/11/02 04:15:33;;;;;;;12.80;2.10;;;;;;;;;;5024216;28;20021;-64
2022/11/02 04:20:42;;;;;;;15.00;2.50;;;;;;;;;;5022712;28;20064;-64
2022/11/02 04:25:54;;;;;;;6.95;2.38;;;;;;;;;;5023268;28;20028;-66
2022/11/02 04:28:19;;;;;;;14.00;2.85;;;;;;;;;;5027242;28;20479;-66
2022/11/02 04:30:44;;;;;;;19.52;2.38;;;;;;;;;;5035067;28;20025;-66
2022/11/02 04:35:53;;;;;;;14.80;2.80;;;;;;;;;;5029221;28;20028;-65
2022/11/02 04:43:46;;;;;;;10.35;2.38;;;;;;;;;;5034283;28;20085;-65
2022/11/02 04:46:12;;;;;;;11.35;2.50;;;;;;;;;;5033385;28;20044;-63
2022/11/02 04:48:37;;;;;;;7.82;2.45;;;;;;;;;;5033632;28;20013;-65
2022/11/02 04:51:02;;;;;;;10.38;2.25;;;;;;;;;;5029550;28;20021;-66
2022/11/02 04:53:27;;;;;;;14.82;2.65;;;;;;;;;;5030786;28;20101;-65
2022/11/02 04:55:53;;;;;;;12.98;2.70;;;;;;;;;;5029479;28;20052;-64
2022/11/02 04:58:18;;;;;;;14.52;2.80;;;;;;;;;;5029401;28;20025;-66
2022/11/02 05:00:43;;;;;;;8.55;2.10;;;;;;;;;;5029600;28;20025;-64
2022/11/02 05:03:08;;;;;;;15.75;3.17;;;;;;;;;;5033593;28;20152;-65
2022/11/02 05:05:33;;;;;;;13.98;2.97;;;;;;;;;;5032770;28;20160;-64
2022/11/02 05:07:59;;;;;;;17.08;2.72;;;;;;;;;;5029310;28;20369;-64
2022/11/02 05:10:24;;;;;;;9.50;2.70;;;;;;;;;;5020249;28;20018;-65
2022/11/02 05:12:54;;;;;;;18.02;3.33;;;;;;;;;;5014255;28;20026;-64
2022/11/02 05:15:20;;;;;;;12.68;2.70;;;;;;;;;;5027571;28;20026;-67
2022/11/02 05:17:46;;;;;;;8.33;2.40;;;;;;;;;;5032159;28;20014;-64
2022/11/02 05:20:12;;;;;;;9.98;3.88;;;;;;;;;;5032123;28;20263;-64
2022/11/02 05:22:40;;;;;;;16.63;3.00;;;;;;;;;;5033155;28;20025;-68
2022/11/02 05:25:05;;;;;;;9.93;2.30;;;;;;;;;;5020814;28;20087;-65
2022/11/02 05:27:30;;;;;;;11.45;2.47;;;;;;;;;;5030224;28;20342;-66
2022/11/02 05:29:55;;;;;;;14.07;2.97;;;;;;;;;;5022697;28;20497;-67
2022/11/02 05:32:21;;;;;;;16.95;3.45;;;;;;;;;;5032368;28;20013;-65
2022/11/02 05:34:46;;;;;;;12.43;2.60;;;;;;;;;;5032265;28;20026;-65
2022/11/02 05:37:11;;;;;;;11.15;2.15;;;;;;;;;;5021379;28;20027;-63
2022/11/02 05:39:36;;;;;;;21.27;3.08;;;;;;;;;;5031848;28;20021;-66
2022/11/02 05:42:01;;;;;;;24.15;2.95;;;;;;;;;;5034206;28;20020;-65
2022/11/02 05:44:27;;;;;;;18.38;2.83;;;;;;;;;;5035169;28;20325;-67
2022/11/02 05:46:52;;;;;;;13.82;2.63;;;;;;;;;;5033724;28;20017;-63
2022/11/02 05:49:17;;;;;;;10.60;2.80;;;;;;;;;;5034872;28;20078;-67
2022/11/02 05:51:43;;;;;;;17.70;2.88;;;;;;;;;;5028107;28;20025;-64
2022/11/02 05:54:08;;;;;;;11.25;2.47;;;;;;;;;;5033437;28;20105;-66
2022/11/02 05:56:34;;;;;;;12.10;3.43;;;;;;;;;;5033263;28;20511;-65
2022/11/02 05:58:59;;;;;;;14.70;2.40;;;;;;;;;;5029005;28;20362;-66
2022/11/02 06:01:24;;;;;;;10.38;2.78;;;;;;;;;;5027185;28;20066;-67
2022/11/02 06:03:49;;;;;;;17.83;2.25;;;;;;;;;;5028014;28;20028;-64
2022/11/02 06:06:15;;;;;;;14.82;2.95;;;;;;;;;;5026006;28;20018;-67
2022/11/02 06:08:40;;;;;;;13.07;2.30;;;;;;;;;;5022126;28;20018;-65
2022/11/02 06:11:06;;;;;;;11.52;2.55;;;;;;;;;;5029599;28;20056;-71
2022/11/02 06:13:31;;;;;;;13.00;2.67;;;;;;;;;;5034572;28;20010;-66
2022/11/02 06:16:00;;;;;;;13.38;2.20;;;;;;;;;;5033867;28;20067;-66
2022/11/02 06:18:26;;;;;;;21.05;3.00;;;;;;;;;;5023646;28;20052;-65
2022/11/02 06:20:51;;;;;;;9.13;3.10;;;;;;;;;;5022879;28;20022;-64
2022/11/02 06:23:17;;;;;;;11.55;2.63;;;;;;;;;;5036549;28;20064;-65
2022/11/02 06:25:43;;;;;;;9.68;2.63;;;;;;;;;;5031991;28;20033;-65
2022/11/02 06:28:08;;;;;;;22.55;3.50;;;;;;;;;;5033537;28;20101;-64
2022/11/02 06:30:34;;;;;;;16.90;3.30;;;;;;;;;;5031639;28;20036;-66
2022/11/02 06:32:59;;;;;;;9.10;2.85;;;;;;;;;;5027007;28;20452;-63
2022/11/02 06:35:24;;;;;;;12.68;3.28;;;;;;;;;;5032695;28;20709;-68
2022/11/02 06:37:49;;;;;;;22.70;4.00;;;;;;;;;;5031698;28;20025;-65
2022/11/02 06:40:15;;;;;;;14.88;3.13;;;;;;;;;;5034784;28;20382;-67
2022/11/02 06:42:40;;;;;;;9.48;2.55;;;;;;;;;;5034575;28;20026;-63
2022/11/02 06:45:06;;;;;;;19.95;2.50;;;;;;;;;;5035755;28;20025;-66
2022/11/02 06:47:32;;;;;;;13.65;3.13;;;;;;;;;;5035473;28;20010;-64
2022/11/02 06:49:58;;;;;;;29.02;3.35;;;;;;;;;;5024041;28;20021;-65
2022/11/02 06:52:23;;;;;;;20.27;2.50;;;;;;;;;;5019154;28;20022;-65
2022/11/02 06:54:48;;;;;;;9.32;2.13;;;;;;;;;;5035240;28;20507;-64
2022/11/02 06:57:13;;;;;;;23.48;3.10;;;;;;;;;;5034416;28;20048;-68
2022/11/02 06:59:38;;;;;;;9.15;2.15;;;;;;;;;;5035231;28;20005;-65
2022/11/02 07:02:04;;;;;;;21.70;3.20;;;;;;;;;;5035052;28;20014;-66
2022/11/02 07:04:29;;;;;;;14.30;2.97;;;;;;;;;;5034501;28;20044;-65
2022/11/02 07:06:54;;;;;;;17.30;3.40;;;;;;;;;;5034294;28;20601;-67
2022/11/02 07:09:19;;;;;;;15.80;2.30;;;;;;;;;;5033898;28;20020;-63
2022/11/02 07:11:44;;;;;;;30.80;3.33;;;;;;;;;;5035232;28;20018;-65
2022/11/02 07:14:10;;;;;;;10.68;2.47;;;;;;;;;;5035524;28;20010;-64
2022/11/02 07:16:35;;;;;;;19.92;2.58;;;;;;;;;;5034215;28;20075;-66
2022/11/02 07:19:00;;;;;;;11.88;2.15;;;;;;;;;;5034159;28;20072;-65
2022/11/02 07:21:25;;;;;;;11.80;2.30;;;;;;;;;;5034540;28;20029;-65
2022/11/02 07:23:51;;;;;;;19.45;2.58;;;;;;;;;;5035362;28;20099;-65
2022/11/02 07:26:16;;;;;;;32.72;4.00;;;;;;;;;;5029806;28;20100;-64
2022/11/02 07:28:41;;;;;;;21.45;3.38;;;;;;;;;;5034699;28;20092;-65
2022/11/02 07:31:06;;;;;;;21.33;2.33;;;;;;;;;;5035553;28;20486;-64
2022/11/02 07:33:32;;;;;;;14.88;2.80;;;;;;;;;;5034815;28;20040;-67
2022/11/02 07:35:57;;;;;;;12.35;2.50;;;;;;;;;;5034330;28;20025;-63
2022/11/02 07:38:22;;;;;;;7.20;2.03;;;;;;;;;;5033901;28;20612;-66
2022/11/02 07:40:49;;;;;;;17.27;2.17;;;;;;;;;;5035070;28;20072;-64
2022/11/02 07:43:18;;;;;;;14.35;2.53;;;;;;;;;;5036320;28;20253;-66
2022/11/02 07:45:43;;;;;;;8.00;2.15;;;;;;;;;;5026995;28;20052;-66
2022/11/02 07:48:08;;;;;;;25.38;2.80;;;;;;;;;;5028983;28;20013;-66
2022/11/02 07:50:33;;;;;;;18.70;2.40;;;;;;;;;;5034696;28;20640;-67
2022/11/02 07:52:59;;;;;;;9.68;1.92;;;;;;;;;;5021397;28;20017;-64
2022/11/02 07:55:25;;;;;;;16.58;2.33;;;;;;;;;;5032909;28;20069;-66
2022/11/02 07:57:54;;;;;;;7.88;2.70;;;;;;;;;;5035007;28;20017;-66
2022/11/02 08:00:20;;;;;;;10.10;2.38;;;;;;;;;;5035169;28;20013;-66
2022/11/02 08:02:45;;;;;;;13.27;2.70;;;;;;;;;;5033226;28;20382;-64
2022/11/02 08:05:10;;;;;;;11.57;2.45;;;;;;;;;;5035283;28;20009;-66
2022/11/02 08:07:35;;;;;;;18.80;2.38;;;;;;;;;;5033622;28;20426;-65
2022/11/02 08:10:01;;;;;;;14.20;2.88;;;;;;;;;;5034786;28;20025;-63
2022/11/02 08:12:26;;;;;;;13.70;2.22;;;;;;;;;;5035696;28;20018;-65
2022/11/02 08:14:51;;;;;;;17.05;2.38;;;;;;;;;;5035298;28;20554;-66
2022/11/02 08:17:17;;;;;;;20.73;2.50;;;;;;;;;;5034419;28;20044;-63
2022/11/02 08:19:42;;;;;;;14.35;3.55;;;;;;;;;;5033469;28;20250;-66
2022/11/02 08:22:07;;;;;;;10.95;2.28;;;;;;;;;;5032237;28;20021;-64
2022/11/02 08:24:32;;;;;;;17.33;2.58;;;;;;;;;;5034706;28;20014;-66
2022/11/02 08:26:57;;;;;;;20.80;2.40;;;;;;;;;;5033633;28;20014;-65
2022/11/02 08:29:23;;;;;;;10.38;2.03;;;;;;;;;;5034683;28;20081;-65
2022/11/02 08:31:48;;;;;;;14.10;2.28;;;;;;;;;;5034738;28;20089;-64
2022/11/02 08:34:13;;;;;;;18.63;2.53;;;;;;;;;;5022586;28;20424;-66
2022/11/02 08:36:38;;;;;;;13.80;1.80;;;;;;;;;;5033536;28;20434;-66
2022/11/02 08:39:04;;;;;;;11.43;1.92;;;;;;;;;;5025871;28;20044;-62
2022/11/02 08:41:29;;;;;;;13.75;2.30;;;;;;;;;;5027859;28;20025;-63
2022/11/02 08:43:55;;;;;;;11.48;2.40;;;;;;;;;;5031856;28;20017;-65
2022/11/02 08:46:21;;;;;;;17.73;3.83;;;;;;;;;;5033048;28;20024;-66
2022/11/02 08:48:46;;;;;;;13.52;2.33;;;;;;;;;;5027992;28;20013;-64
2022/11/02 08:51:11;;;;;;;19.83;2.72;;;;;;;;;;5027303;28;20021;-66
2022/11/02 08:53:36;;;;;;;8.77;2.50;;;;;;;;;;5035071;28;20117;-67
2022/11/02 08:56:02;;;;;;;12.95;3.08;;;;;;;;;;5034401;28;20053;-64
2022/11/02 08:58:27;;;;;;;12.98;2.55;;;;;;;;;;5020484;28;20017;-65
2022/11/02 09:00:52;;;;;;;13.95;2.13;;;;;;;;;;5035007;28;20033;-64
2022/11/02 09:03:18;;;;;;;15.23;2.42;;;;;;;;;;5019549;28;20047;-65
2022/11/02 09:05:44;;;;;;;17.35;2.45;;;;;;;;;;5030625;28;20021;-66
2022/11/02 09:08:10;;;;;;;19.42;3.13;;;;;;;;;;5029889;28;20021;-64
2022/11/02 09:10:36;;;;;;;10.30;2.20;;;;;;;;;;5034256;28;20014;-65
2022/11/02 09:13:05;;;;;;;11.13;2.03;;;;;;;;;;5034529;28;20039;-64
2022/11/02 09:15:30;;;;;;;;;;;;;;;;;;5021483;28;20018;-66
2022/11/02 09:17:55;;;;;;;13.75;2.42;;;;;;;;;;5032995;28;19908;-64
2022/11/02 09:20:21;;;;;;;14.27;2.73;;;;;;;;;;5015556;28;20021;-65
2022/11/02 09:22:46;;;;;;;18.98;2.72;;;;;;;;;;5031054;28;20281;-65
2022/11/02 09:25:12;;;;;;;15.40;1.90;;;;;;;;;;5032508;28;20417;-64
2022/11/02 09:27:37;;;;;;;16.08;2.58;;;;;;;;;;5026151;28;20014;-65
2022/11/02 09:30:03;;;;;;;15.75;1.90;;;;;;;;;;5022899;28;20113;-66
2022/11/02 09:32:32;;;;;;;16.58;2.35;;;;;;;;;;5031454;28;20010;-64
2022/11/02 09:34:57;;;;;;;22.70;3.08;;;;;;;;;;5034906;28;20026;-66
2022/11/02 09:37:22;;;;;;;12.75;1.98;;;;;;;;;;5032721;28;20044;-67
2022/11/02 09:39:48;;;;;;;20.52;2.70;;;;;;;;;;5031838;28;20025;-66
2022/11/02 09:42:33;;;;;;;12.80;2.22;;;;;;;;;;5012588;28;20087;-65
2022/11/02 09:45:01;;;;;;;11.23;2.45;;;;;;;;;;5027326;28;20025;-64
2022/11/02 09:47:28;;;;;;;12.00;1.80;;;;;;;;;;5032101;28;20040;-64
2022/11/02 09:49:55;;;;;;;10.98;2.92;;;;;;;;;;5031510;28;20290;-64
2022/11/02 09:52:26;;;;;;;12.35;1.98;;;;;;;;;;5032066;28;20018;-66
2022/11/02 09:54:53;;;;;;;15.30;2.53;;;;;;;;;;5034070;28;20022;-67
2022/11/02 09:57:31;;;;;;;15.80;2.42;;;;;;;;;;5024324;28;20373;-64
2022/11/02 09:59:57;;;;;;;13.52;1.80;;;;;;;;;;5027699;28;20026;-65
2022/11/02 10:02:22;;;;;;;22.15;2.88;;;;;;;;;;5025751;28;20075;-65
2022/11/02 10:05:03;;;;;;;14.97;2.77;;;;;;;;;;5030954;28;20022;-67
2022/11/02 10:07:34;;;;;;;12.85;2.10;;;;;;;;;;5033017;28;20811;-66
2022/11/02 10:10:04;;;;;;;10.30;1.65;;;;;;;;;;5021225;28;20379;-62
2022/11/02 10:12:35;;;;;;;9.90;1.75;;;;;;;;;;5032961;28;20490;-65
2022/11/02 10:15:00;;;;;;;14.32;2.05;;;;;;;;;;5032858;28;20040;-67
2022/11/02 10:17:28;;;;;;;15.85;1.70;;;;;;;;;;5032816;28;20487;-66
2022/11/02 10:19:54;;;;;;;15.10;3.22;;;;;;;;;;5033447;28;20013;-64
2022/11/02 10:22:21;;;;;;;10.10;2.17;;;;;;;;;;5033078;28;20013;-64
2022/11/02 10:24:47;;;;;;;12.23;1.95;;;;;;;;;;5031652;28;20017;-66
2022/11/02 10:27:21;;;;;;;14.93;2.25;;;;;;;;;;5029107;28;20451;-65
2022/11/02 10:30:02;;;;;;;7.70;1.63;;;;;;;;;;5032997;28;20017;-65
2022/11/02 10:32:29;;;;;;;16.00;2.20;;;;;;;;;;5031066;28;20053;-63
2022/11/02 10:34:54;;;;;;;8.25;1.77;;;;;;;;;;5028757;28;20040;-64
2022/11/02 10:37:19;;;;;;;12.05;2.05;;;;;;;;;;5035784;28;20010;-66
2022/11/02 10:40:04;;;;;;;9.60;1.80;;;;;;;;;;5035650;28;20243;-64
2022/11/02 10:42:48;;;;;;;7.22;1.63;;;;;;;;;;5030432;28;20266;-65
2022/11/02 10:45:20;;;;;;;10.73;1.75;;;;;;;;;;5032003;28;20013;-66
2022/11/02 10:47:54;;;;;;;9.07;1.45;;;;;;;;;;5035406;28;20013;-67
2022/11/02 10:50:39;;;;;;;10.10;1.63;;;;;;;;;;5035557;28;20047;-65
2022/11/02 10:53:10;;;;;;;14.27;1.98;;;;;;;;;;5036359;28;20021;-67
2022/11/02 10:55:44;;;;;;;20.35;2.05;;;;;;;;;;5035776;28;20521;-67
2022/11/02 10:58:14;;;;;;;14.02;2.17;;;;;;;;;;5034655;28;20479;-66
2022/11/02 11:00:41;;;;;;;10.80;1.58;;;;;;;;;;5036462;28;20028;-66
2022/11/02 11:03:14;;;;;;;10.00;1.70;;;;;;;;;;5037757;28;20490;-67
2022/11/02 11:05:51;;;;;;;13.20;1.45;;;;;;;;;;5033375;28;20088;-65
2022/11/02 11:08:27;;;;;;;9.02;1.40;;;;;;;;;;5036173;28;20084;-65
2022/11/02 11:10:52;;;;;;;18.98;1.73;;;;;;;;;;5033796;28;20017;-66
2022/11/02 11:13:22;;;;;;;12.38;1.92;;;;;;;;;;5036840;28;20020;-65
2022/11/02 11:15:51;;;;;;;5.95;1.60;;;;;;;;;;5023079;28;20084;-67
2022/11/02 11:18:18;;;;;;;11.82;1.98;;;;;;;;;;5034863;28;20025;-65
2022/11/02 11:20:43;;;;;;;8.00;1.67;;;;;;;;;;5023649;28;20045;-66
2022/11/02 11:23:24;;;;;;;7.13;1.77;;;;;;;;;;5024947;28;20076;-66
2022/11/02 11:25:58;;;;;;;8.25;1.40;;;;;;;;;;5029325;28;20029;-65
2022/11/02 11:28:28;;;;;;;10.48;1.23;;;;;;;;;;5034789;28;20067;-65
2022/11/02 11:31:02;;;;;;;10.10;1.75;;;;;;;;;;5027682;28;20016;-65
2022/11/02 11:33:29;;;;;;;9.75;1.70;;;;;;;;;;5034012;28;20040;-65
2022/11/02 11:35:57;;;;;;;9.38;1.55;;;;;;;;;;5034402;28;20087;-67
2022/11/02 11:38:25;;;;;;;12.45;2.25;;;;;;;;;;5034837;28;20025;-66
2022/11/02 11:40:52;;;;;;;11.33;1.60;;;;;;;;;;5034864;28;20049;-67
2022/11/02 11:43:19;;;;;;;7.88;1.50;;;;;;;;;;5034621;28;20262;-65
2022/11/02 11:46:13;;;;;;;20.73;1.95;;;;;;;;;;5033933;28;20037;-66
2022/11/02 11:48:40;;;;;;;12.00;1.67;;;;;;;;;;5010620;28;20029;-67
2022/11/02 11:51:23;;;;;;;10.43;1.48;;;;;;;;;;5034277;28;20474;-69
2022/11/02 11:54:03;;;;;;;9.70;1.50;;;;;;;;;;5034299;28;20017;-66
2022/11/02 11:56:28;;;;;;;8.68;1.40;;;;;;;;;;5033546;28;20027;-67
2022/11/02 11:58:54;;;;;;;8.40;1.57;;;;;;;;;;5036297;28;20410;-65
2022/11/02 12:01:19;;;;;;;11.85;1.50;;;;;;;;;;5029460;28;20255;-66
2022/11/02 12:03:52;;;;;;;9.43;1.58;;;;;;;;;;5029727;28;20093;-65
2022/11/02 12:06:36;;;;;;;7.88;1.65;;;;;;;;;;5030263;28;20498;-64
2022/11/02 12:09:01;;;;;;;11.88;2.22;;;;;;;;;;5034979;28;20025;-69
2022/11/02 12:11:30;;;;;;;12.33;2.07;;;;;;;;;;5030860;28;20367;-64
2022/11/02 12:14:14;;;;;;;10.45;1.58;;;;;;;;;;5032900;28;20246;-65
2022/11/02 12:16:42;;;;;;;4.57;1.10;;;;;;;;;;5032831;28;20029;-64
2022/11/02 12:19:45;;;;;;;9.57;1.38;;;;;;;;;;5034263;28;20056;-65
2022/11/02 12:22:27;;;;;;;9.93;1.55;;;;;;;;;;4952356;29;20016;-65
2022/11/02 12:25:11;;;;;;;14.23;1.42;;;;;;;;;;4952941;28;20024;-67
2022/11/02 12:27:51;;;;;;;11.25;1.33;;;;;;;;;;4953967;29;20050;-66
2022/11/02 12:30:17;;;;;;;11.63;1.52;;;;;;;;;;4938182;29;20038;-67
2022/11/02 12:32:55;;;;;;;14.30;1.95;;;;;;;;;;4953718;29;20458;-66
2022/11/02 12:35:23;;;;;;;9.40;1.38;;;;;;;;;;4954328;28;20069;-65
2022/11/02 12:38:09;;;;;;;10.10;1.20;;;;;;;;;;4953448;29;20062;-65
2022/11/02 12:40:52;;;;;;;10.57;1.35;;;;;;;;;;4948581;29;20074;-67
2022/11/02 12:43:36;;;;;;;8.07;1.30;;;;;;;;;;4948704;29;20106;-65
2022/11/02 12:46:06;;;;;;;8.27;1.35;;;;;;;;;;4952478;29;20041;-65
2022/11/02 12:48:45;;;;;;;9.05;1.42;;;;;;;;;;4953403;29;20027;-65
2022/11/02 12:51:18;;;;;;;17.25;2.22;;;;;;;;;;4953525;29;20090;-64
2022/11/02 12:53:47;;;;;;;9.40;1.25;;;;;;;;;;5018521;28;20109;-67
2022/11/02 12:56:16;;;;;;;7.93;1.88;;;;;;;;;;5033649;28;20073;-65
2022/11/02 12:58:42;;;;;;;11.73;1.55;;;;;;;;;;5034512;28;20017;-67
2022/11/02 13:01:19;;;;;;;5.38;1.52;;;;;;;;;;5033553;28;20100;-66
2022/11/02 13:03:56;;;;;;;9.82;1.83;;;;;;;;;;5033490;28;20379;-67
2022/11/02 13:06:29;;;;;;;11.00;1.33;;;;;;;;;;5032824;28;20072;-68
2022/11/02 13:09:03;;;;;;;10.60;1.02;;;;;;;;;;5034667;28;20021;-66
2022/11/02 13:11:31;;;;;;;5.68;1.10;;;;;;;;;;5020845;28;20009;-67
2022/11/02 13:13:57;;;;;;;21.10;1.80;;;;;;;;;;5030502;28;20013;-66
2022/11/02 13:16:36;;;;;;;8.02;1.50;;;;;;;;;;5032188;28;20009;-65
2022/11/02 13:19:02;;;;;;;;;;;;;;;;;;5033745;28;20013;-67
2022/11/02 13:21:32;;;;;;;9.88;1.30;;;;;;;;;;5033179;28;19908;-67
2022/11/02 13:23:59;;;;;;;7.13;1.55;;;;;;;;;;5034376;28;20033;-67
2022/11/02 13:26:29;;;;;;;13.75;1.55;;;;;;;;;;5018257;28;20018;-64
2022/11/02 13:29:16;;;;;;;6.40;1.30;;;;;;;;;;5032898;28;20014;-64
2022/11/02 13:31:45;;;;;;;12.27;1.10;;;;;;;;;;5027562;28;20021;-65
2022/11/02 13:34:13;;;;;;;6.15;1.13;;;;;;;;;;5032633;28;20597;-65
2022/11/02 13:36:38;;;;;;;8.85;1.08;;;;;;;;;;5032228;28;20029;-65
2022/11/02 13:39:19;;;;;;;12.10;2.03;;;;;;;;;;5033636;28;20533;-66
2022/11/02 13:41:47;;;;;;;8.80;1.25;;;;;;;;;;5032794;28;20082;-66
2022/11/02 13:44:31;;;;;;;7.50;1.63;;;;;;;;;;5033266;28;20013;-66
2022/11/02 13:47:02;;;;;;;8.43;1.30;;;;;;;;;;5032333;28;20025;-67
2022/11/02 13:49:36;;;;;;;8.95;1.48;;;;;;;;;;5032908;28;20041;-67
2022/11/02 13:52:14;;;;;;;6.93;1.20;;;;;;;;;;5033119;28;20092;-68
2022/11/02 13:54:50;;;;;;;6.97;1.73;;;;;;;;;;5021303;28;20022;-65
2022/11/02 13:57:21;;;;;;;7.50;1.48;;;;;;;;;;5018954;28;20044;-68
2022/11/02 13:59:46;;;;;;;12.98;1.75;;;;;;;;;;5033011;28;20029;-66
2022/11/02 14:02:14;;;;;;;8.90;1.52;;;;;;;;;;5031994;28;20028;-66
2022/11/02 14:04:41;;;;;;;6.97;1.20;;;;;;;;;;5033645;28;20159;-64
2022/11/02 14:07:18;;;;;;;5.72;1.63;;;;;;;;;;5034329;28;20351;-66
2022/11/02 14:09:43;;;;;;;8.75;1.48;;;;;;;;;;5035609;28;20025;-65
2022/11/02 14:12:20;;;;;;;11.98;1.80;;;;;;;;;;5036435;28;20473;-65
2022/11/02 14:15:06;;;;;;;17.23;1.55;;;;;;;;;;5035445;28;20494;-65
2022/11/02 14:17:51;;;;;;;11.75;2.08;;;;;;;;;;4993124;28;20079;-64
2022/11/02 14:20:34;;;;;;;4.78;0.98;;;;;;;;;;5024612;28;20051;-64
2022/11/02 14:23:13;;;;;;;9.90;1.55;;;;;;;;;;5035723;28;20014;-65
2022/11/02 14:25:44;;;;;;;12.35;1.45;;;;;;;;;;5035480;28;20013;-66
2022/11/02 14:28:29;;;;;;;6.35;1.55;;;;;;;;;;5026834;28;20013;-64
2022/11/02 14:30:54;;;;;;;10.48;1.58;;;;;;;;;;5036425;28;20719;-66
2022/11/02 14:33:25;;;;;;;16.52;2.42;;;;;;;;;;5035807;28;20029;-66
2022/11/02 14:35:59;;;;;;;8.13;1.38;;;;;;;;;;5034649;28;20025;-66
2022/11/02 14:38:34;;;;;;;13.13;1.75;;;;;;;;;;5033764;28;20489;-63
2022/11/02 14:40:59;;;;;;;5.35;1.23;;;;;;;;;;5030140;28;20040;-65
2022/11/02 14:43:39;;;;;;;10.07;1.65;;;;;;;;;;5029074;28;20021;-65
2022/11/02 14:46:06;;;;;;;3.47;1.08;;;;;;;;;;5015778;28;20022;-66
2022/11/02 14:48:41;;;;;;;4.68;1.00;;;;;;;;;;5033597;28;20017;-64
2022/11/02 14:51:13;;;;;;;4.78;1.30;;;;;;;;;;5028097;28;20038;-64
2022/11/02 14:53:38;;;;;;;6.32;0.90;;;;;;;;;;5033870;28;20447;-67
2022/11/02 14:56:04;;;;;;;7.70;1.50;;;;;;;;;;5025423;28;20025;-64
2022/11/02 14:58:32;;;;;;;8.55;1.55;;;;;;;;;;5035852;28;20025;-65
2022/11/02 15:01:00;;;;;;;7.88;1.30;;;;;;;;;;5033292;28;20525;-64